Time;durP1;ratioP1;P1;durP2;ratioP2;P2;SDS_P1;SDS_P2;PMS_P1;PMS_P2;Temp;Humidity;BMP_temperature;BMP_pressure;BME280_temperature;BME280_humidity;BME280_pressure;Samples;Min_cycle;Max_cycle;Signal;HPM_P1;HPM_P2
2021/09/20 00:00:14;;;;;;;;;;;19.20;82.30;;;;;;4303614;33;44113;-80
2021/09/20 00:02:41;;;;;;;;;;;19.30;82.40;;;;;;4303426;33;42463;-80
2021/09/20 00:05:12;;;;;;;;;;;19.20;82.50;;;;;;4290348;33;44316;-80
2021/09/20 00:07:39;;;;;;;;;;;19.20;82.50;;;;;;4291635;33;20057;-80
2021/09/20 00:10:08;;;;;;;;;;;19.20;82.60;;;;;;4303146;33;43920;-80
2021/09/20 00:12:36;;;;;;;;;;;19.20;82.70;;;;;;4290805;33;44067;-80
2021/09/20 00:15:04;;;;;;;;;;;19.20;82.80;;;;;;4303553;33;42810;-80
2021/09/20 00:17:31;;;;;;;;;;;19.20;82.90;;;;;;4303089;33;43953;-80
2021/09/20 00:19:59;;;;;;;;;;;19.20;83.00;;;;;;4303158;33;44230;-80
2021/09/20 00:22:31;;;;;;;;;;;19.10;83.00;;;;;;4290063;33;42787;-80
2021/09/20 00:24:58;;;;;;;;;;;19.10;83.00;;;;;;4289948;33;42707;-80
2021/09/20 00:27:25;;;;;;;;;;;19.10;83.00;;;;;;4303098;33;43298;-80
2021/09/20 00:29:54;;;;;;;;;;;19.10;83.20;;;;;;4303357;33;44281;-81
2021/09/20 00:32:24;;;;;;;;;;;19.10;83.20;;;;;;4289824;33;43769;-80
2021/09/20 00:34:51;;;;;;;;;;;19.10;83.20;;;;;;4301755;33;43537;-81
2021/09/20 00:37:18;;;;;;;;;;;19.10;83.20;;;;;;4303383;33;43576;-81
2021/09/20 00:39:45;;;;;;;;;;;19.10;83.20;;;;;;4303224;33;44270;-81
2021/09/20 00:42:12;;;;;;;;;;;19.10;83.30;;;;;;4290208;33;44592;-80
2021/09/20 00:44:39;;;;;;;;;;;19.00;83.40;;;;;;4303057;33;42907;-80
2021/09/20 00:47:09;;;;;;;;;;;19.10;83.50;;;;;;4302653;33;43968;-80
2021/09/20 00:49:36;;;;;;;;;;;19.00;83.40;;;;;;4302691;33;42509;-81
2021/09/20 00:52:03;;;;;;;;;;;19.00;83.60;;;;;;4302871;33;44351;-80
2021/09/20 00:54:31;;;;;;;;;;;19.00;83.60;;;;;;4289543;33;42741;-81
2021/09/20 00:56:59;;;;;;;;;;;19.00;83.60;;;;;;4302536;33;43057;-81
2021/09/20 00:59:26;;;;;;;;;;;19.00;83.70;;;;;;4302778;33;44267;-80
2021/09/20 01:01:53;;;;;;;;;;;19.00;83.70;;;;;;4302638;33;42982;-81
2021/09/20 01:04:21;;;;;;;;;;;19.00;83.80;;;;;;4302350;33;45048;-81
2021/09/20 01:06:53;;;;;;;;;;;19.00;83.90;;;;;;4302992;33;43855;-80
2021/09/20 01:09:21;;;;;;;;;;;19.00;83.80;;;;;;4289778;33;42867;-80
2021/09/20 01:11:48;;;;;;;;;;;18.90;83.90;;;;;;4289811;33;43578;-80
2021/09/20 01:14:15;;;;;;;;;;;19.00;83.90;;;;;;4302715;33;43039;-81
2021/09/20 01:16:43;;;;;;;;;;;19.00;84.00;;;;;;4302521;33;43647;-80
2021/09/20 01:19:13;;;;;;;;;;;18.90;84.00;;;;;;4302680;33;43318;-80
2021/09/20 01:21:40;;;;;;;;;;;18.90;83.90;;;;;;4302160;33;46034;-81
2021/09/20 01:24:07;;;;;;;;;;;18.90;83.90;;;;;;4302518;33;42782;-81
2021/09/20 01:26:34;;;;;;;;;;;18.90;84.10;;;;;;4302593;33;43883;-81
2021/09/20 01:29:06;;;;;;;;;;;18.90;84.10;;;;;;4302124;33;43902;-81
2021/09/20 01:31:34;;;;;;;;;;;18.80;84.20;;;;;;4289861;33;43038;-81
2021/09/20 01:34:01;;;;;;;;;;;18.90;84.40;;;;;;4301556;33;44250;-80
2021/09/20 01:36:28;;;;;;;;;;;18.90;84.40;;;;;;4302497;33;46063;-80
2021/09/20 01:38:55;;;;;;;;;;;18.80;84.30;;;;;;4301065;33;44175;-80
2021/09/20 01:41:25;;;;;;;;;;;18.80;84.30;;;;;;4301974;33;42601;-81
2021/09/20 01:43:52;;;;;;;;;;;18.80;84.50;;;;;;4301504;33;43872;-81
2021/09/20 01:46:19;;;;;;;;;;;18.80;84.60;;;;;;4302025;33;45811;-80
2021/09/20 01:48:46;;;;;;;;;;;18.80;84.60;;;;;;4302130;33;42275;-80
2021/09/20 01:51:15;;;;;;;;;;;18.80;84.70;;;;;;4288854;33;42675;-80
2021/09/20 01:53:42;;;;;;;;;;;18.80;84.50;;;;;;4302190;33;43904;-81
2021/09/20 01:56:12;;;;;;;;;;;18.80;84.60;;;;;;4301878;33;42318;-81
2021/09/20 01:58:39;;;;;;;;;;;18.80;84.60;;;;;;4288886;33;43959;-81
2021/09/20 02:01:06;;;;;;;;;;;18.70;84.70;;;;;;4302109;33;44588;-80
2021/09/20 02:03:34;;;;;;;;;;;18.70;84.90;;;;;;4302048;33;43578;-81
2021/09/20 02:06:01;;;;;;;;;;;18.70;84.90;;;;;;4301577;33;43490;-81
2021/09/20 02:08:30;;;;;;;;;;;18.70;84.90;;;;;;4301640;33;43471;-81
2021/09/20 02:10:57;;;;;;;;;;;18.70;85.00;;;;;;4302054;33;43332;-81
2021/09/20 02:13:30;;;;;;;;;;;18.70;85.00;;;;;;4288796;33;42529;-80
2021/09/20 02:16:00;;;;;;;;;;;18.70;85.00;;;;;;4301919;33;44340;-81
2021/09/20 02:18:27;;;;;;;;;;;18.70;85.00;;;;;;4301865;33;42610;-81
2021/09/20 02:20:54;;;;;;;;;;;18.70;85.00;;;;;;4301598;33;43370;-80
2021/09/20 02:23:21;;;;;;;;;;;18.70;85.10;;;;;;4301349;33;43958;-81
2021/09/20 02:25:48;;;;;;;;;;;18.70;85.20;;;;;;4301554;33;43234;-81
2021/09/20 02:28:18;;;;;;;;;;;18.60;85.20;;;;;;4288731;33;43008;-81
2021/09/20 02:30:45;;;;;;;;;;;18.70;85.20;;;;;;4288707;33;42673;-81
2021/09/20 02:33:12;;;;;;;;;;;18.60;85.40;;;;;;4301756;33;43950;-81
2021/09/20 02:35:39;;;;;;;;;;;18.60;85.10;;;;;;4301281;33;45002;-81
2021/09/20 02:38:07;;;;;;;;;;;18.60;85.10;;;;;;4288195;33;42290;-80
2021/09/20 02:40:34;;;;;;;;;;;18.60;85.20;;;;;;4301433;33;42156;-81
2021/09/20 02:43:01;;;;;;;;;;;18.60;85.10;;;;;;4301275;33;44221;-80
2021/09/20 02:45:28;;;;;;;;;;;18.60;85.20;;;;;;4288580;33;43903;-81
2021/09/20 02:47:56;;;;;;;;;;;18.60;85.30;;;;;;4301567;33;43892;-80
2021/09/20 02:50:23;;;;;;;;;;;18.60;85.30;;;;;;4300220;33;43242;-80
2021/09/20 02:52:50;;;;;;;;;;;18.50;85.30;;;;;;4301562;33;44203;-81
2021/09/20 02:55:17;;;;;;;;;;;18.50;85.40;;;;;;4287667;33;44304;-80
2021/09/20 02:57:44;;;;;;;;;;;18.50;85.40;;;;;;4288195;33;42705;-80
2021/09/20 03:00:14;;;;;;;;;;;18.50;85.50;;;;;;4301386;33;44320;-81
2021/09/20 03:02:42;;;;;;;;;;;18.50;85.60;;;;;;4300005;33;43355;-80
2021/09/20 03:05:09;;;;;;;;;;;18.50;85.60;;;;;;4288527;33;44275;-81
2021/09/20 03:07:36;;;;;;;;;;;18.50;85.70;;;;;;4301502;33;43663;-81
2021/09/20 03:10:04;;;;;;;;;;;18.50;85.70;;;;;;4288284;33;43986;-81
2021/09/20 03:12:31;;;;;;;;;;;18.50;85.70;;;;;;4299877;33;44199;-80
2021/09/20 03:14:58;;;;;;;;;;;18.50;85.80;;;;;;4301430;33;44204;-81
2021/09/20 03:17:25;;;;;;;;;;;18.50;85.90;;;;;;4301371;33;44279;-81
2021/09/20 03:19:55;;;;;;;;;;;18.50;85.90;;;;;;4301013;33;43001;-81
2021/09/20 03:22:22;;;;;;;;;;;18.50;85.90;;;;;;4300817;33;44280;-80
2021/09/20 03:24:49;;;;;;;;;;;18.50;86.00;;;;;;4300785;33;43442;-81
2021/09/20 03:27:17;;;;;;;;;;;18.40;86.00;;;;;;4300881;33;44205;-80
2021/09/20 03:29:45;;;;;;;;;;;18.40;86.00;;;;;;4300012;33;43288;-81
2021/09/20 03:32:15;;;;;;;;;;;18.40;86.00;;;;;;4288328;33;43247;-80
2021/09/20 03:34:42;;;;;;;;;;;18.40;86.00;;;;;;4301004;33;44084;-80
2021/09/20 03:37:09;;;;;;;;;;;18.40;85.90;;;;;;4287939;33;43478;-81
2021/09/20 03:39:36;;;;;;;;;;;18.40;86.00;;;;;;4300989;33;43917;-81
2021/09/20 03:42:03;;;;;;;;;;;18.40;85.90;;;;;;4301167;33;44199;-80
2021/09/20 03:44:30;;;;;;;;;;;18.40;85.90;;;;;;4300661;33;43055;-81
2021/09/20 03:46:57;;;;;;;;;;;18.40;85.90;;;;;;4300842;33;43913;-81
2021/09/20 03:49:24;;;;;;;;;;;18.40;86.00;;;;;;4301253;33;44261;-80
2021/09/20 03:51:51;;;;;;;;;;;18.30;85.80;;;;;;4288230;33;44914;-80
2021/09/20 03:54:19;;;;;;;;;;;18.30;85.90;;;;;;4301117;33;43799;-81
2021/09/20 03:56:46;;;;;;;;;;;18.30;86.00;;;;;;4287561;33;44631;-81
2021/09/20 03:59:13;;;;;;;;;;;18.30;85.90;;;;;;4287619;33;45382;-80
2021/09/20 04:01:40;;;;;;;;;;;18.30;85.80;;;;;;4287598;33;44204;-81
2021/09/20 04:04:10;;;;;;;;;;;18.30;85.80;;;;;;4301094;33;43870;-81
2021/09/20 04:06:37;;;;;;;;;;;18.30;85.70;;;;;;4301099;33;43795;-80
2021/09/20 04:09:04;;;;;;;;;;;18.20;85.80;;;;;;4303233;33;43534;-81
2021/09/20 04:11:31;;;;;;;;;;;18.20;85.90;;;;;;4303488;33;44977;-81
2021/09/20 04:13:58;;;;;;;;;;;18.20;86.00;;;;;;4303285;33;43457;-81
2021/09/20 04:16:25;;;;;;;;;;;18.20;86.00;;;;;;4303007;33;44617;-81
2021/09/20 04:18:52;;;;;;;;;;;18.10;85.90;;;;;;4303082;33;43473;-81
2021/09/20 04:21:22;;;;;;;;;;;18.20;86.00;;;;;;4303460;33;43200;-81
2021/09/20 04:23:49;;;;;;;;;;;18.10;85.90;;;;;;4302119;33;42922;-81
2021/09/20 04:26:16;;;;;;;;;;;18.10;85.80;;;;;;4303460;33;43897;-81
2021/09/20 04:28:43;;;;;;;;;;;18.10;85.80;;;;;;4303068;33;42676;-81
2021/09/20 04:31:10;;;;;;;;;;;18.10;85.80;;;;;;4302918;33;44251;-81
2021/09/20 04:33:37;;;;;;;;;;;18.10;85.80;;;;;;4302867;33;44522;-80
2021/09/20 04:36:08;;;;;;;;;;;18.10;85.70;;;;;;4290728;33;43832;-81
2021/09/20 04:38:35;;;;;;;;;;;18.10;85.80;;;;;;4289878;33;44254;-81
2021/09/20 04:41:02;;;;;;;;;;;18.00;85.70;;;;;;4303227;33;42782;-81
2021/09/20 04:43:32;;;;;;;;;;;18.00;85.70;;;;;;4290210;33;43333;-81
2021/09/20 04:45:59;;;;;;;;;;;18.00;85.70;;;;;;4289853;33;42881;-81
2021/09/20 04:48:31;;;;;;;;;;;18.00;85.70;;;;;;4290620;33;44607;-81
2021/09/20 04:50:58;;;;;;;;;;;18.00;85.70;;;;;;4290092;33;44607;-81
2021/09/20 04:53:25;;;;;;;;;;;17.90;85.50;;;;;;4303051;33;44242;-80
2021/09/20 04:55:52;;;;;;;;;;;17.90;86.20;;;;;;4302670;33;44278;-80
2021/09/20 04:58:19;;;;;;;;;;;17.90;85.40;;;;;;4302710;33;42969;-81
2021/09/20 05:00:49;;;;;;;;;;;17.90;85.40;;;;;;4302785;33;43521;-80
2021/09/20 05:03:16;;;;;;;;;;;17.80;85.30;;;;;;4302405;33;42921;-81
2021/09/20 05:05:44;;;;;;;;;;;17.80;85.40;;;;;;4301784;33;42587;-81
2021/09/20 05:08:12;;;;;;;;;;;17.80;85.60;;;;;;4301389;33;42710;-80
2021/09/20 05:10:39;;;;;;;;;;;17.80;85.70;;;;;;4289512;33;43494;-80
2021/09/20 05:13:06;;;;;;;;;;;17.80;85.60;;;;;;4302571;33;44216;-81
2021/09/20 05:15:33;;;;;;;;;;;17.80;85.70;;;;;;4302372;33;43167;-81
2021/09/20 05:18:01;;;;;;;;;;;17.80;85.70;;;;;;4302384;33;45790;-81
2021/09/20 05:20:28;;;;;;;;;;;17.80;85.70;;;;;;4302287;33;43798;-81
2021/09/20 05:22:55;;;;;;;;;;;17.70;85.60;;;;;;4302267;33;44833;-81
2021/09/20 05:25:22;;;;;;;;;;;17.80;85.60;;;;;;4302366;33;42509;-81
2021/09/20 05:27:51;;;;;;;;;;;17.80;85.60;;;;;;4289522;33;43278;-81
2021/09/20 05:30:19;;;;;;;;;;;17.70;85.50;;;;;;4289160;33;44160;-81
2021/09/20 05:32:55;;;;;;;;;;;17.70;85.50;;;;;;4289729;33;42701;-81
2021/09/20 05:35:28;;;;;;;;;;;17.70;85.50;;;;;;4301460;33;42889;-81
2021/09/20 05:37:55;;;;;;;;;;;17.70;85.60;;;;;;4289547;33;45007;-81
2021/09/20 05:40:25;;;;;;;;;;;17.70;85.60;;;;;;4302020;33;44109;-81
2021/09/20 05:42:59;;;;;;;;;;;17.60;85.50;;;;;;4289236;33;43382;-81
2021/09/20 05:45:26;;;;;;;;;;;17.60;85.50;;;;;;4302385;33;44203;-81
2021/09/20 05:47:54;;;;;;;;;;;17.60;85.50;;;;;;4288825;33;44069;-81
2021/09/20 05:50:21;;;;;;;;;;;17.60;85.50;;;;;;4301833;33;42984;-81
2021/09/20 05:52:50;;;;;;;;;;;17.60;85.60;;;;;;4301787;33;43512;-81
2021/09/20 05:55:22;;;;;;;;;;;17.60;85.50;;;;;;4302365;33;43235;-81
2021/09/20 05:57:49;;;;;;;;;;;17.50;85.50;;;;;;4302038;33;44643;-81
2021/09/20 06:00:17;;;;;;;;;;;17.50;85.60;;;;;;4289144;33;43556;-81
2021/09/20 06:02:47;;;;;;;;;;;17.50;85.50;;;;;;4289023;33;43610;-81
2021/09/20 06:05:17;;;;;;;;;;;17.50;85.60;;;;;;4288871;33;44342;-81
2021/09/20 06:07:45;;;;;;;;;;;17.50;85.70;;;;;;4288783;33;42458;-81
2021/09/20 06:10:16;;;;;;;;;;;17.50;85.60;;;;;;4300903;33;43756;-80
2021/09/20 06:12:44;;;;;;;;;;;17.50;85.80;;;;;;4288547;33;43484;-81
2021/09/20 06:15:11;;;;;;;;;;;17.50;85.80;;;;;;4301630;33;43064;-81
2021/09/20 06:17:39;;;;;;;;;;;17.40;85.60;;;;;;4302019;33;43958;-81
2021/09/20 06:20:07;;;;;;;;;;;17.40;85.70;;;;;;4301685;33;44263;-81
2021/09/20 06:22:37;;;;;;;;;;;17.40;85.70;;;;;;4301400;33;44083;-80
2021/09/20 06:25:09;;;;;;;;;;;17.40;85.80;;;;;;4301897;33;43269;-81
2021/09/20 06:27:36;;;;;;;;;;;17.40;85.90;;;;;;4301817;33;44261;-80
2021/09/20 06:30:04;;;;;;;;;;;17.40;85.90;;;;;;4301801;33;43860;-81
2021/09/20 06:32:32;;;;;;;;;;;17.40;85.90;;;;;;4301287;33;43174;-81
2021/09/20 06:35:02;;;;;;;;;;;17.40;86.00;;;;;;4301709;33;44938;-80
2021/09/20 06:37:29;;;;;;;;;;;17.30;86.00;;;;;;4288269;33;44195;-81
2021/09/20 06:39:57;;;;;;;;;;;17.30;86.10;;;;;;4301630;33;43249;-81
2021/09/20 06:42:24;;;;;;;;;;;17.30;86.20;;;;;;4288244;33;43802;-81
2021/09/20 06:44:54;;;;;;;;;;;17.30;86.10;;;;;;4301312;33;42558;-81
2021/09/20 06:47:26;;;;;;;;;;;17.30;86.00;;;;;;4287968;33;44045;-81
2021/09/20 06:49:53;;;;;;;;;;;17.30;86.90;;;;;;4288790;33;43893;-80
2021/09/20 06:52:23;;;;;;;;;;;17.20;86.10;;;;;;4301596;33;44151;-81
2021/09/20 06:54:51;;;;;;;;;;;17.30;86.30;;;;;;4288131;33;43015;-80
2021/09/20 06:57:18;;;;;;;;;;;17.20;86.20;;;;;;4301221;33;44183;-80
2021/09/20 06:59:48;;;;;;;;;;;17.20;86.20;;;;;;4301240;33;43949;-80
2021/09/20 07:02:22;;;;;;;;;;;17.20;86.30;;;;;;4288298;33;43830;-81
2021/09/20 07:04:49;;;;;;;;;;;17.20;86.40;;;;;;4301487;33;43651;-80
2021/09/20 07:07:24;;;;;;;;;;;17.20;86.40;;;;;;4301350;33;43153;-81
2021/09/20 07:09:53;;;;;;;;;;;17.20;86.50;;;;;;4301662;33;43389;-80
2021/09/20 07:12:20;;;;;;;;;;;17.20;86.60;;;;;;4300946;33;43276;-81
2021/09/20 07:14:53;;;;;;;;;;;17.20;86.60;;;;;;4301175;33;43598;-81
2021/09/20 07:17:28;;;;;;;;;;;17.20;86.60;;;;;;4301613;33;45145;-80
2021/09/20 07:19:55;;;;;;;;;;;17.20;86.80;;;;;;4300917;33;42732;-80
2021/09/20 07:22:28;;;;;;;;;;;17.20;86.70;;;;;;4300947;33;43076;-80
2021/09/20 07:24:55;;;;;;;;;;;17.20;86.80;;;;;;4288404;33;44396;-80
2021/09/20 07:27:30;;;;;;;;;;;17.20;86.70;;;;;;4288362;33;43932;-80
2021/09/20 07:30:08;;;;;;;;;;;17.20;86.80;;;;;;4287871;33;44000;-80
2021/09/20 07:32:35;;;;;;;;;;;17.20;86.80;;;;;;4301031;33;44924;-80
2021/09/20 07:35:08;;;;;;;;;;;17.10;86.80;;;;;;4288241;33;43977;-81
2021/09/20 07:37:38;;;;;;;;;;;17.10;87.00;;;;;;4299972;33;43470;-80
2021/09/20 07:40:07;;;;;;;;;;;17.10;87.10;;;;;;4288561;33;44574;-81
2021/09/20 07:42:39;;;;;;;;;;;17.20;87.30;;;;;;4289124;33;43376;-80
2021/09/20 07:45:10;;;;;;;;;;;17.20;87.30;;;;;;4304135;33;43259;-80
2021/09/20 07:47:45;;;;;;;;;;;17.10;87.20;;;;;;4303554;33;43202;-81
2021/09/20 07:50:19;;;;;;;;;;;17.20;87.40;;;;;;4304095;33;43954;-80
2021/09/20 07:52:49;;;;;;;;;;;17.20;87.50;;;;;;4290943;33;43946;-80
2021/09/20 07:55:25;;;;;;;;;;;17.20;87.60;;;;;;4302719;33;43094;-81
2021/09/20 07:57:55;;;;;;;;;;;17.20;87.60;;;;;;4304002;33;44217;-81
2021/09/20 08:00:30;;;;;;;;;;;17.20;87.60;;;;;;4303524;33;44217;-81
2021/09/20 08:03:01;;;;;;;;;;;17.10;87.60;;;;;;4303425;33;43992;-81
2021/09/20 08:05:31;;;;;;;;;;;17.20;87.80;;;;;;4291000;33;44075;-81
2021/09/20 08:08:03;;;;;;;;;;;17.20;87.80;;;;;;4303816;33;43840;-80
2021/09/20 08:10:39;;;;;;;;;;;17.20;88.00;;;;;;4303490;33;42926;-81
2021/09/20 08:13:15;;;;;;;;;;;17.10;88.00;;;;;;4291676;33;20421;-81
2021/09/20 08:15:46;;;;;;;;;;;17.20;88.20;;;;;;4290574;33;42615;-81
2021/09/20 08:18:18;;;;;;;;;;;17.20;88.30;;;;;;4303579;33;43445;-80
2021/09/20 08:20:54;;;;;;;;;;;17.10;88.30;;;;;;4302683;33;43505;-80
2021/09/20 08:23:26;;;;;;;;;;;17.20;88.40;;;;;;4303717;33;43474;-80
2021/09/20 08:25:57;;;;;;;;;;;17.20;88.50;;;;;;4302251;33;42711;-81
2021/09/20 08:28:27;;;;;;;;;;;17.20;88.60;;;;;;4290649;33;43031;-80
2021/09/20 08:30:56;;;;;;;;;;;17.20;88.70;;;;;;4303317;33;44406;-81
2021/09/20 08:33:29;;;;;;;;;;;17.10;88.60;;;;;;4303725;33;43183;-80
2021/09/20 08:35:59;;;;;;;;;;;17.20;88.70;;;;;;4303094;33;46166;-81
2021/09/20 08:38:32;;;;;;;;;;;17.20;88.80;;;;;;4303242;33;45309;-80
2021/09/20 08:40:59;;;;;;;;;;;17.20;88.90;;;;;;4289885;33;42456;-80
2021/09/20 08:43:36;;;;;;;;;;;17.20;89.00;;;;;;4304347;33;20002;-80
2021/09/20 08:46:04;;;;;;;;;;;17.20;89.00;;;;;;4303134;33;43365;-81
2021/09/20 08:48:46;;;;;;;;;;;17.20;89.30;;;;;;4290203;33;43349;-80
2021/09/20 08:51:24;;;;;;;;;;;17.20;89.10;;;;;;4302803;33;43445;-81
2021/09/20 08:53:59;;;;;;;;;;;17.20;89.20;;;;;;4301749;33;43448;-80
2021/09/20 08:56:35;;;;;;;;;;;17.20;89.20;;;;;;4302124;33;44167;-80
2021/09/20 08:59:02;;;;;;;;;;;17.20;89.10;;;;;;4289941;33;43870;-81
2021/09/20 09:01:31;;;;;;;;;;;17.20;89.20;;;;;;4301675;33;43473;-81
2021/09/20 09:04:17;;;;;;;;;;;17.20;89.30;;;;;;4289421;33;44001;-80
2021/09/20 09:06:54;;;;;;;;;;;17.30;89.40;;;;;;4302513;33;44241;-81
2021/09/20 09:09:29;;;;;;;;;;;17.20;89.30;;;;;;4289934;33;43565;-80
2021/09/20 09:12:12;;;;;;;;;;;17.30;89.40;;;;;;4289390;33;41999;-81
2021/09/20 09:14:56;;;;;;;;;;;17.30;89.40;;;;;;4302277;33;20014;-80
2021/09/20 09:17:26;;;;;;;;;;;17.30;89.40;;;;;;4290043;33;44216;-80
2021/09/20 09:20:16;;;;;;;;;;;17.30;89.40;;;;;;4302850;33;43518;-81
2021/09/20 09:22:50;;;;;;;;;;;17.30;89.50;;;;;;4287339;33;43609;-80
2021/09/20 09:25:27;;;;;;;;;;;17.30;89.50;;;;;;4289202;33;43246;-81
2021/09/20 09:28:02;;;;;;;;;;;17.30;89.40;;;;;;4289389;33;42317;-81
2021/09/20 09:30:37;;;;;;;;;;;17.30;89.40;;;;;;4302665;33;44073;-80
2021/09/20 09:33:12;;;;;;;;;;;17.40;89.50;;;;;;4302658;33;42866;-80
2021/09/20 09:35:46;;;;;;;;;;;17.30;89.40;;;;;;4301508;33;43246;-80
2021/09/20 09:38:16;;;;;;;;;;;17.40;89.50;;;;;;4302571;33;43842;-80
2021/09/20 09:40:49;;;;;;;;;;;17.40;89.50;;;;;;4302013;33;45065;-80
2021/09/20 09:43:29;;;;;;;;;;;17.40;89.50;;;;;;4302107;33;43500;-80
2021/09/20 09:46:00;;;;;;;;;;;17.40;89.50;;;;;;4303036;33;20041;-81
2021/09/20 09:48:38;;;;;;;;;;;17.40;89.30;;;;;;4302439;33;44355;-80
2021/09/20 09:51:11;;;;;;;;;;;17.40;89.30;;;;;;4289170;33;44850;-80
2021/09/20 09:53:44;;;;;;;;;;;17.40;89.30;;;;;;4302321;33;44605;-81
2021/09/20 09:56:14;;;;;;;;;;;17.40;89.30;;;;;;4302311;33;43161;-80
2021/09/20 09:58:55;;;;;;;;;;;17.40;89.30;;;;;;4301723;33;43810;-80
2021/09/20 10:01:29;;;;;;;;;;;17.50;89.30;;;;;;4289208;33;44581;-80
2021/09/20 10:04:10;;;;;;;;;;;17.50;89.30;;;;;;4289056;33;44079;-80
2021/09/20 10:06:42;;;;;;;;;;;17.50;89.30;;;;;;4300829;33;43210;-80
2021/09/20 10:09:15;;;;;;;;;;;17.50;89.20;;;;;;4300980;33;45880;-80
2021/09/20 10:11:47;;;;;;;;;;;17.50;89.20;;;;;;4300708;33;43958;-80
2021/09/20 10:14:19;;;;;;;;;;;17.50;89.20;;;;;;4288718;33;43557;-81
2021/09/20 10:16:50;;;;;;;;;;;17.50;89.20;;;;;;4302808;33;20002;-80
2021/09/20 10:19:20;;;;;;;;;;;17.50;89.20;;;;;;4301524;33;42791;-80
2021/09/20 10:21:50;;;;;;;;;;;17.60;89.30;;;;;;4300872;33;43872;-80
2021/09/20 10:24:26;;;;;;;;;;;17.60;89.40;;;;;;4288769;33;44650;-79
2021/09/20 10:26:56;;;;;;;;;;;17.60;89.40;;;;;;4288759;33;43960;-80
2021/09/20 10:29:26;;;;;;;;;;;17.60;89.30;;;;;;4300739;33;43477;-80
2021/09/20 10:31:54;;;;;;;;;;;17.60;89.40;;;;;;4301262;33;43476;-80
2021/09/20 10:34:24;;;;;;;;;;;17.60;89.30;;;;;;4301452;33;44191;-80
2021/09/20 10:37:01;;;;;;;;;;;17.60;89.20;;;;;;4301822;33;45709;-80
2021/09/20 10:39:46;;;;;;;;;;;17.60;89.20;;;;;;4301464;33;42750;-80
2021/09/20 10:42:32;;;;;;;;;;;17.60;89.30;;;;;;4300520;33;42359;-79
2021/09/20 10:45:01;;;;;;;;;;;17.70;89.30;;;;;;4301220;33;44558;-80
2021/09/20 10:47:41;;;;;;;;;;;17.70;89.40;;;;;;4288170;33;45224;-80
2021/09/20 10:50:08;;;;;;;;;;;17.70;90.00;;;;;;4288427;33;45257;-79
2021/09/20 10:52:36;;;;;;;;;;;17.70;89.30;;;;;;4301562;33;44263;-80
2021/09/20 10:55:08;;;;;;;;;;;17.70;89.30;;;;;;4299930;33;45177;-80
2021/09/20 10:57:38;;;;;;;;;;;17.70;89.40;;;;;;4288029;33;44188;-79
2021/09/20 11:00:24;;;;;;;;;;;17.80;89.50;;;;;;4300971;33;43370;-80
2021/09/20 11:02:54;;;;;;;;;;;17.80;89.40;;;;;;4301036;33;44427;-80
2021/09/20 11:05:25;;;;;;;;;;;17.80;89.40;;;;;;4288127;33;43470;-79
2021/09/20 11:07:58;;;;;;;;;;;17.80;89.40;;;;;;4288385;33;44973;-80
2021/09/20 11:10:34;;;;;;;;;;;17.80;89.30;;;;;;4300249;33;43156;-80
2021/09/20 11:13:12;;;;;;;;;;;17.90;89.40;;;;;;4288812;33;43510;-80
2021/09/20 11:15:49;;;;;;;;;;;17.90;89.40;;;;;;4288465;33;43478;-79
2021/09/20 11:18:32;;;;;;;;;;;17.90;89.40;;;;;;4291587;33;20372;-79
2021/09/20 11:21:09;;;;;;;;;;;17.90;89.30;;;;;;4303895;33;44169;-79
2021/09/20 11:23:39;;;;;;;;;;;18.00;89.40;;;;;;4291484;33;46061;-80
2021/09/20 11:26:13;;;;;;;;;;;18.00;89.40;;;;;;4291239;33;45564;-79
2021/09/20 11:28:49;;;;;;;;;;;18.00;89.50;;;;;;4304274;33;42648;-79
2021/09/20 11:31:33;;;;;;;;;;;18.00;89.40;;;;;;4303337;33;43170;-80
2021/09/20 11:34:06;;;;;;;;;;;18.10;89.40;;;;;;4290766;33;42662;-79
2021/09/20 11:36:45;;;;;;;;;;;18.10;89.50;;;;;;4303085;33;44120;-79
2021/09/20 11:39:20;;;;;;;;;;;18.10;89.40;;;;;;4291205;33;44665;-79
2021/09/20 11:41:58;;;;;;;;;;;18.10;89.40;;;;;;4304133;33;44969;-79
2021/09/20 11:44:34;;;;;;;;;;;18.20;89.30;;;;;;4291391;33;44286;-79
2021/09/20 11:47:07;;;;;;;;;;;18.20;89.30;;;;;;4302942;33;43748;-79
2021/09/20 11:49:34;;;;;;;;;;;18.20;89.30;;;;;;4290796;33;44276;-80
2021/09/20 11:52:02;;;;;;;;;;;18.20;89.30;;;;;;4304106;33;43195;-80
2021/09/20 11:54:41;;;;;;;;;;;18.20;89.30;;;;;;4290816;33;43477;-79
2021/09/20 11:57:21;;;;;;;;;;;18.30;89.30;;;;;;4290445;33;45374;-79
2021/09/20 12:00:01;;;;;;;;;;;18.30;89.20;;;;;;4290427;33;43759;-80
2021/09/20 12:02:34;;;;;;;;;;;18.30;89.20;;;;;;4303559;33;44091;-79
2021/09/20 12:05:10;;;;;;;;;;;18.40;89.30;;;;;;4291253;33;44275;-79
2021/09/20 12:07:49;;;;;;;;;;;18.40;89.20;;;;;;4303597;33;42744;-79
2021/09/20 12:10:23;;;;;;;;;;;18.50;89.20;;;;;;4291007;33;43388;-79
2021/09/20 12:12:52;;;;;;;;;;;18.50;89.20;;;;;;4303851;33;44344;-79
2021/09/20 12:15:30;;;;;;;;;;;18.50;89.20;;;;;;4303346;33;43748;-79
2021/09/20 12:18:16;;;;;;;;;;;18.50;89.20;;;;;;4303170;33;44345;-79
2021/09/20 12:20:48;;;;;;;;;;;18.60;89.20;;;;;;4290880;33;43643;-79
2021/09/20 12:23:25;;;;;;;;;;;18.60;89.20;;;;;;4289971;33;44647;-79
2021/09/20 12:25:56;;;;;;;;;;;18.60;89.10;;;;;;4290176;33;43177;-79
2021/09/20 12:28:30;;;;;;;;;;;18.60;89.10;;;;;;4289699;33;44955;-78
2021/09/20 12:31:15;;;;;;;;;;;18.70;89.10;;;;;;4302975;33;42674;-79
2021/09/20 12:34:01;;;;;;;;;;;18.70;89.10;;;;;;4303451;33;44927;-79
2021/09/20 12:36:32;;;;;;;;;;;18.80;89.10;;;;;;4302962;33;43008;-79
2021/09/20 12:39:14;;;;;;;;;;;18.80;89.00;;;;;;4303328;33;44560;-79
2021/09/20 12:41:44;;;;;;;;;;;18.80;88.90;;;;;;4303204;33;45267;-79
2021/09/20 12:44:13;;;;;;;;;;;18.90;88.90;;;;;;4303225;33;45214;-79
2021/09/20 12:46:46;;;;;;;;;;;18.90;88.80;;;;;;4289635;33;45644;-79
2021/09/20 12:49:19;;;;;;;;;;;18.90;88.70;;;;;;4302994;33;43105;-79
2021/09/20 12:51:49;;;;;;;;;;;18.90;88.60;;;;;;4303168;33;42670;-79
2021/09/20 12:54:25;;;;;;;;;;;19.00;88.50;;;;;;4290121;33;45029;-79
2021/09/20 12:56:56;;;;;;;;;;;19.00;88.50;;;;;;4303192;33;44304;-79
2021/09/20 12:59:38;;;;;;;;;;;19.00;88.40;;;;;;4302825;33;44100;-79
2021/09/20 13:02:19;;;;;;;;;;;19.10;88.40;;;;;;4287275;33;43483;-79
2021/09/20 13:05:03;;;;;;;;;;;19.10;88.10;;;;;;4287420;33;45969;-79
2021/09/20 13:07:33;;;;;;;;;;;19.20;88.00;;;;;;4286998;33;42427;-79
2021/09/20 13:10:13;;;;;;;;;;;19.20;88.00;;;;;;4286997;33;42901;-79
2021/09/20 13:12:49;;;;;;;;;;;19.20;88.00;;;;;;4288526;33;43144;-79
2021/09/20 13:15:20;;;;;;;;;;;19.20;87.80;;;;;;4287976;33;44187;-78
2021/09/20 13:18:08;;;;;;;;;;;19.30;87.60;;;;;;4287431;33;45714;-78
2021/09/20 13:20:40;;;;;;;;;;;19.30;87.50;;;;;;4288175;33;42742;-78
2021/09/20 13:23:14;;;;;;;;;;;19.40;87.60;;;;;;4287720;33;20002;-79
2021/09/20 13:25:47;;;;;;;;;;;19.40;87.40;;;;;;4287368;33;44008;-79
2021/09/20 13:28:28;;;;;;;;;;;19.50;87.30;;;;;;4298973;33;45074;-79
2021/09/20 13:30:58;;;;;;;;;;;19.40;87.20;;;;;;4288325;33;43981;-79
2021/09/20 13:33:32;;;;;;;;;;;19.50;87.10;;;;;;4288153;33;43890;-79
2021/09/20 13:36:12;;;;;;;;;;;19.50;87.00;;;;;;4286965;33;45881;-79
2021/09/20 13:38:47;;;;;;;;;;;19.60;87.00;;;;;;4286976;33;45459;-79
2021/09/20 13:41:16;;;;;;;;;;;19.60;86.80;;;;;;4287524;33;44575;-79
2021/09/20 13:43:50;;;;;;;;;;;19.60;86.70;;;;;;4287520;33;44288;-79
2021/09/20 13:46:26;;;;;;;;;;;19.70;86.70;;;;;;4287998;33;44076;-79
2021/09/20 13:48:56;;;;;;;;;;;19.70;86.60;;;;;;4287532;33;43146;-79
2021/09/20 13:51:26;;;;;;;;;;;19.70;86.50;;;;;;4287452;33;44101;-79
2021/09/20 13:54:02;;;;;;;;;;;19.80;86.40;;;;;;4288782;33;19995;-78
2021/09/20 13:56:30;;;;;;;;;;;19.80;86.20;;;;;;4286842;33;43186;-79
2021/09/20 13:59:03;;;;;;;;;;;19.80;85.90;;;;;;4286617;33;44866;-79
2021/09/20 14:01:39;;;;;;;;;;;19.90;85.90;;;;;;4288754;33;44377;-79
2021/09/20 14:04:06;;;;;;;;;;;19.90;85.80;;;;;;4301280;33;44087;-79
2021/09/20 14:06:40;;;;;;;;;;;19.90;85.70;;;;;;4289319;33;43181;-78
2021/09/20 14:09:12;;;;;;;;;;;20.00;85.60;;;;;;4302034;33;46153;-78
2021/09/20 14:11:39;;;;;;;;;;;20.00;85.50;;;;;;4301984;33;46017;-79
2021/09/20 14:14:12;;;;;;;;;;;20.10;85.30;;;;;;4301510;33;43496;-78
2021/09/20 14:16:47;;;;;;;;;;;20.10;85.10;;;;;;4289483;33;45988;-78
2021/09/20 14:19:23;;;;;;;;;;;20.10;85.00;;;;;;4302114;33;44230;-79
2021/09/20 14:21:53;;;;;;;;;;;20.20;84.80;;;;;;4300454;33;43751;-78
2021/09/20 14:24:29;;;;;;;;;;;20.20;84.50;;;;;;4289523;33;20014;-78
2021/09/20 14:27:01;;;;;;;;;;;20.20;84.40;;;;;;4301941;33;45266;-78
2021/09/20 14:29:30;;;;;;;;;;;20.20;84.20;;;;;;4301893;33;44259;-79
2021/09/20 14:32:05;;;;;;;;;;;20.20;84.10;;;;;;4300764;33;44780;-79
2021/09/20 14:34:33;;;;;;;;;;;20.20;83.90;;;;;;4288789;33;44136;-79
2021/09/20 14:37:06;;;;;;;;;;;20.30;83.80;;;;;;4301386;33;43043;-79